LFPM 031800Z AUTO 18010KT 8000 RA OVC005/// ///TCU 04/04 Q1006

Les avions qui composent notre flotte

Avion Robin DR400-100

Avion école

(freins aux palonniers)

F-GGJG
   * tarif promotionnel appliqué pendant la formation des élèves non brevetés


F-GGJG Planche